William R Fairchild International Airport
KCLM : now visible

Airfield :











YOU CAN JOIN US ON...

 
LOGIN :

Register | Disclaimer

   EN    FR    IT 

 









Legend :    VFR   Marginal VFR   IFR   Intensive IFR   Very Intensive IFR
Visi :
Ceiling :
>= 8 km
>= 3000ft
5 to 8 km
1000 to 3000 ft
1500m to 5 km
500 to 1000 ft
800 to 1500m
200 to 500 ft
< 800m
< 200 ft
Symbols :   Thunderstorms  Fog  Heavy snow  Heavy precipitations  Wind > 20 kt






- Airport Elevation : 291 ft
- IATA code : CLM


KCLM - William R Fairchild International

CURRENT METAR :
  • 191153Z AUTO 24007KT 10SM OVC023 15/13 A2997 RMK AO2 SLP150 70002 T01500128 10150 20144 53004

EXPIRED METARs :
  • 191112Z AUTO 28008KT 10SM BKN019 14/12 A2997 RMK AO2 T01440122
  • 191053Z AUTO 25005KT 10SM CLR 14/12 A2997 RMK AO2 SLP147 T01440122
  • 191009Z AUTO 27007KT 10SM SCT022 14/12 A2997 RMK AO2 T01440122
  • 190953Z AUTO 27010KT 10SM BKN021 14/12 A2996 RMK AO2 SLP146 T01440122

TAF KCLM
Valid from the 19 at 12:00 until the 20 at 12:00 UTC


191126Z 1912/2012 27007KT P6SM SCT009 OVC035
TEMPO 1912/1916 BKN010 OVC030
FM191600 31005KT P6SM BKN016 OVC025
FM192100 30006KT P6SM SCT020 BKN035
FM200600 29004KT P6SM OVC040
FM201000 27003KT P6SM OVC025
KZSE FIR / North America



MET'MAP, your aeronautical weather chart ! - Copyright ORBIFLY December 2007 - Disclaimer

ORBIFLY MET'MAP TEAM :

Programming & Development : Alexandra Zaïnal
Concept & original design : Baudouin d'Aumeries
Assistance for programming : Marc-Olivier Méhu
Technical & hardware support : Manuel Goepfert

Contact : metmap@orbifly.com




SOURCES & CREDITS :

   NOAA       Earth
Advisory